Enderlin, North Dakota
Current Conditions -  °F | °C
As of 7:35 PM on Monday 22 Dec 2014 (Local Time) from KGWR Reporting Station
Overcast Overcast  
Wind Chill: 26°   Ceiling: 200
Heat Index: 34°   Visibility: 2mi
Dew Point: 34°   Wind: 10mph
Humidity: 100%   Direction: 70°ENE
Pressure: 29.59"   Gusts: NA
Location:  46.62°N, 97.6°W
Report Text: KGWR 230135Z AUTO 07009KT 2SM OVC002 01/01 A2959 RMK A01 P001
Loading
Personal Weather Stations






























Interactive Weather Map New forecast layout! Learn more

10-Day Weather Forecast

Advertisements
Track Severe Weather on mobile